createdAt,value
2023-02-02T00:01:43.036Z,8.20
2023-02-02T00:04:33.069Z,8.20
2023-02-02T00:07:21.124Z,8.20
2023-02-02T00:10:09.685Z,6.70
2023-02-02T00:12:58.508Z,8.20
2023-02-02T00:15:46.088Z,8.20
2023-02-02T00:18:34.464Z,8.20
2023-02-02T00:21:24.603Z,9.40
2023-02-02T00:24:14.016Z,8.10
2023-02-02T00:27:01.988Z,8.20
2023-02-02T00:29:53.835Z,8.60
2023-02-02T00:32:42.437Z,8.20
2023-02-02T00:35:33.490Z,8.40
2023-02-02T00:38:22.909Z,8.90
2023-02-02T00:41:17.345Z,8.20
2023-02-02T00:44:22.395Z,8.20
2023-02-02T00:47:10.756Z,8.20
2023-02-02T00:49:58.085Z,8.20
2023-02-02T00:52:46.240Z,8.40
2023-02-02T00:55:36.057Z,9.80
2023-02-02T00:58:23.861Z,8.20
2023-02-02T01:01:16.921Z,10.70
2023-02-02T01:04:05.304Z,8.20
2023-02-02T01:06:54.326Z,8.20
2023-02-02T01:09:43.390Z,8.00
2023-02-02T01:12:32.997Z,8.40
2023-02-02T01:15:21.571Z,8.30
2023-02-02T01:18:12.485Z,5.60
2023-02-02T01:21:00.373Z,8.20
2023-02-02T01:23:48.328Z,8.20
2023-02-02T01:26:36.363Z,8.40
2023-02-02T01:29:26.210Z,8.20
2023-02-02T01:32:16.876Z,8.20
2023-02-02T01:35:04.529Z,8.20
2023-02-02T01:37:52.286Z,8.30
2023-02-02T01:40:45.400Z,7.50
2023-02-02T01:43:52.910Z,8.10
2023-02-02T01:46:42.283Z,8.30
2023-02-02T01:49:30.148Z,8.10
2023-02-02T01:52:24.640Z,7.90
2023-02-02T01:55:14.088Z,8.60
2023-02-02T01:58:04.227Z,8.10
2023-02-02T02:00:52.235Z,8.80
2023-02-02T02:03:41.644Z,8.10
2023-02-02T02:06:32.569Z,8.30
2023-02-02T02:09:22.190Z,8.10
2023-02-02T02:12:15.666Z,8.30
2023-02-02T02:15:21.278Z,8.10
2023-02-02T02:18:19.765Z,8.10
2023-02-02T02:21:45.132Z,9.10
2023-02-02T02:25:17.391Z,10.10
2023-02-02T02:28:22.859Z,8.30
2023-02-02T02:31:34.372Z,8.00
2023-02-02T02:34:29.061Z,8.00
2023-02-02T02:37:19.895Z,8.20
2023-02-02T02:40:12.791Z,8.10
2023-02-02T02:43:04.495Z,8.10
2023-02-02T02:45:54.678Z,7.80
2023-02-02T02:48:45.222Z,8.00
2023-02-02T02:51:46.983Z,7.90
2023-02-02T02:54:40.200Z,7.70
2023-02-02T02:57:37.672Z,8.10
2023-02-02T03:00:32.792Z,8.10
2023-02-02T03:03:26.374Z,8.10
2023-02-02T03:06:16.126Z,8.10
2023-02-02T03:09:09.392Z,9.70
2023-02-02T03:12:00.319Z,8.80
2023-02-02T03:14:48.457Z,8.10
2023-02-02T03:17:35.844Z,8.20
2023-02-02T03:20:25.393Z,8.70
2023-02-02T03:23:13.060Z,8.10
2023-02-02T03:26:06.036Z,8.40
2023-02-02T03:28:53.953Z,8.10
2023-02-02T03:31:42.191Z,8.70
2023-02-02T03:34:30.039Z,8.00
2023-02-02T03:37:17.528Z,8.10
2023-02-02T03:40:07.824Z,8.10
2023-02-02T03:42:57.775Z,8.10
2023-02-02T03:45:45.471Z,8.30
2023-02-02T03:48:36.926Z,8.10
2023-02-02T03:51:27.707Z,8.10
2023-02-02T03:54:15.441Z,8.10
2023-02-02T03:57:05.409Z,8.00
2023-02-02T03:59:56.310Z,7.80
2023-02-02T04:02:43.903Z,7.90
2023-02-02T04:05:34.064Z,8.50
2023-02-02T04:08:22.216Z,8.00
2023-02-02T04:11:10.906Z,8.00
2023-02-02T04:13:58.198Z,8.00
2023-02-02T04:16:48.807Z,10.60
2023-02-02T04:19:36.299Z,8.20
2023-02-02T04:22:24.868Z,8.00
2023-02-02T04:25:12.590Z,8.00
2023-02-02T04:28:00.207Z,8.00
2023-02-02T04:30:50.329Z,8.10
2023-02-02T04:33:39.887Z,8.60
2023-02-02T04:36:27.546Z,8.00
2023-02-02T04:39:15.486Z,8.10
2023-02-02T04:42:03.255Z,8.00
2023-02-02T04:44:51.578Z,8.00
2023-02-02T04:47:38.849Z,8.30
2023-02-02T04:50:28.213Z,8.30
2023-02-02T04:53:16.075Z,10.20
2023-02-02T04:56:08.454Z,8.00
2023-02-02T04:58:56.030Z,8.10
2023-02-02T05:01:43.868Z,8.00
2023-02-02T05:04:31.548Z,8.00
2023-02-02T05:07:23.140Z,8.10
2023-02-02T05:10:11.505Z,8.00
2023-02-02T05:12:59.253Z,7.30
2023-02-02T05:15:47.561Z,8.00
2023-02-02T05:18:35.594Z,7.90
2023-02-02T05:21:23.898Z,8.10
2023-02-02T05:24:13.096Z,7.90
2023-02-02T05:27:01.340Z,7.90
2023-02-02T05:29:49.734Z,7.90
2023-02-02T05:32:37.494Z,7.90
2023-02-02T05:35:25.625Z,7.90
2023-02-02T05:38:13.332Z,7.80
2023-02-02T05:41:02.290Z,7.80
2023-02-02T05:43:50.936Z,7.70
2023-02-02T05:46:42.877Z,7.80
2023-02-02T05:49:32.067Z,7.70
2023-02-02T05:52:24.206Z,7.80
2023-02-02T05:55:11.910Z,7.70
2023-02-02T05:58:04.014Z,7.70
2023-02-02T06:00:53.166Z,8.00
2023-02-02T06:03:43.872Z,7.60
2023-02-02T06:06:36.007Z,6.90
2023-02-02T06:09:24.031Z,7.60
2023-02-02T06:12:11.622Z,7.70
2023-02-02T06:15:01.094Z,8.10
2023-02-02T06:17:48.602Z,7.60
2023-02-02T06:20:36.845Z,7.40
2023-02-02T06:23:24.158Z,7.30
2023-02-02T06:26:14.340Z,7.40
2023-02-02T06:29:05.348Z,7.20
2023-02-02T06:31:55.332Z,9.20
2023-02-02T06:34:44.605Z,7.10
2023-02-02T06:37:34.377Z,7.20
2023-02-02T06:40:22.129Z,8.30
2023-02-02T06:43:11.712Z,7.20
2023-02-02T06:45:59.375Z,7.30
2023-02-02T06:48:48.852Z,7.30
2023-02-02T06:51:38.068Z,7.10
2023-02-02T06:54:26.788Z,6.60
2023-02-02T06:57:15.751Z,8.60
2023-02-02T07:00:06.504Z,7.20
2023-02-02T07:02:55.533Z,7.40
2023-02-02T07:05:47.035Z,7.20
2023-02-02T07:08:35.711Z,8.80
2023-02-02T07:11:24.286Z,7.20
2023-02-02T07:14:13.625Z,9.20
2023-02-02T07:17:05.077Z,7.50
2023-02-02T07:19:55.582Z,7.00
2023-02-02T07:22:44.748Z,6.40
2023-02-02T07:25:35.788Z,7.10
2023-02-02T07:28:28.308Z,7.10
2023-02-02T07:31:17.728Z,7.10
2023-02-02T07:34:06.303Z,7.10
2023-02-02T07:36:53.925Z,7.10
2023-02-02T07:39:45.991Z,7.10
2023-02-02T07:42:37.177Z,7.20
2023-02-02T07:45:27.944Z,7.40
2023-02-02T07:48:16.194Z,7.20
2023-02-02T07:51:04.300Z,7.10
2023-02-02T07:53:54.685Z,7.10
2023-02-02T07:56:44.589Z,7.20
2023-02-02T07:59:33.137Z,7.20
2023-02-02T08:02:26.396Z,7.20
2023-02-02T08:05:14.158Z,7.20
2023-02-02T08:08:02.390Z,7.20
2023-02-02T08:10:50.128Z,7.30
2023-02-02T08:13:39.271Z,7.60
2023-02-02T08:16:28.289Z,7.30
2023-02-02T08:19:16.246Z,9.90
2023-02-02T08:22:03.829Z,8.00
2023-02-02T08:24:51.817Z,7.40
2023-02-02T08:27:39.565Z,7.40
2023-02-02T08:30:29.106Z,8.10
2023-02-02T08:33:17.176Z,7.40
2023-02-02T08:36:06.334Z,7.60
2023-02-02T08:38:53.800Z,7.60
2023-02-02T08:41:41.926Z,8.10
2023-02-02T08:44:42.096Z,7.80
2023-02-02T08:47:40.695Z,7.90
2023-02-02T08:50:29.511Z,8.00
2023-02-02T08:53:17.107Z,8.00
2023-02-02T08:56:08.853Z,8.00
2023-02-02T08:58:58.334Z,10.00
2023-02-02T09:01:46.442Z,7.70
2023-02-02T09:04:36.645Z,7.90
2023-02-02T09:07:27.958Z,8.00
2023-02-02T09:10:16.335Z,8.10
2023-02-02T09:13:03.767Z,8.00
2023-02-02T09:15:54.511Z,8.20
2023-02-02T09:18:42.901Z,8.40
2023-02-02T09:21:37.240Z,8.50
2023-02-02T09:24:25.266Z,8.30
2023-02-02T09:27:13.432Z,8.30
2023-02-02T09:30:01.013Z,8.40
2023-02-02T09:32:50.654Z,8.50
2023-02-02T09:35:39.336Z,8.60
2023-02-02T09:38:28.238Z,8.80
2023-02-02T09:41:24.322Z,8.70
2023-02-02T09:44:19.215Z,8.60
2023-02-02T09:47:14.417Z,8.50
2023-02-02T09:50:03.585Z,8.60
2023-02-02T09:52:54.610Z,9.10
2023-02-02T09:55:46.679Z,9.00
2023-02-02T09:58:38.841Z,8.90
2023-02-02T10:01:29.652Z,8.80
2023-02-02T10:04:20.839Z,8.90
2023-02-02T10:07:11.404Z,8.90
2023-02-02T10:10:00.669Z,9.00
2023-02-02T10:12:54.020Z,9.10
2023-02-02T10:15:49.405Z,9.80
2023-02-02T10:18:40.265Z,9.30
2023-02-02T10:21:30.519Z,9.20
2023-02-02T10:24:20.123Z,9.30
2023-02-02T10:27:13.298Z,9.30
2023-02-02T10:30:08.150Z,9.40
2023-02-02T10:33:01.446Z,9.40
2023-02-02T10:35:54.778Z,10.60
2023-02-02T10:38:47.536Z,11.30
2023-02-02T10:41:37.816Z,9.80
2023-02-02T10:44:29.797Z,9.70
2023-02-02T10:47:23.539Z,9.50
2023-02-02T10:50:17.411Z,11.50
2023-02-02T10:53:11.291Z,9.60
2023-02-02T10:56:02.050Z,9.80
2023-02-02T10:58:53.820Z,9.80
2023-02-02T11:01:44.454Z,9.90
2023-02-02T11:04:52.123Z,10.00
2023-02-02T11:07:40.460Z,10.20
2023-02-02T11:10:28.526Z,10.00
2023-02-02T11:13:18.777Z,10.00
2023-02-02T11:16:21.040Z,10.50
2023-02-02T11:19:23.426Z,10.10
2023-02-02T11:22:25.495Z,10.10
2023-02-02T11:25:27.895Z,10.00
2023-02-02T11:28:20.872Z,9.80
2023-02-02T11:31:09.003Z,10.10
2023-02-02T11:34:13.097Z,10.10
2023-02-02T11:37:05.329Z,10.40
2023-02-02T11:39:55.654Z,10.20
2023-02-02T11:42:46.997Z,10.40
2023-02-02T11:45:39.511Z,10.40
2023-02-02T11:48:29.733Z,10.00
2023-02-02T11:51:25.807Z,10.20
2023-02-02T11:54:17.827Z,10.20
2023-02-02T11:57:09.787Z,10.50
2023-02-02T12:00:08.058Z,10.50
2023-02-02T12:02:58.404Z,10.50
2023-02-02T12:05:50.393Z,12.50
2023-02-02T12:08:38.300Z,9.90
2023-02-02T12:11:35.688Z,9.80
2023-02-02T12:14:33.485Z,11.70
2023-02-02T12:17:30.216Z,10.00
2023-02-02T12:20:24.712Z,9.90
2023-02-02T12:23:23.386Z,10.40
2023-02-02T12:26:16.418Z,9.30
2023-02-02T12:29:20.077Z,11.10
2023-02-02T12:32:16.387Z,9.70
2023-02-02T12:35:21.960Z,10.00
2023-02-02T12:38:15.611Z,10.50
2023-02-02T12:41:11.239Z,11.80
2023-02-02T12:44:02.643Z,10.90
2023-02-02T12:47:01.987Z,13.20
2023-02-02T12:50:12.793Z,11.30
2023-02-02T12:53:13.841Z,11.30
2023-02-02T12:56:06.074Z,11.40
2023-02-02T12:58:57.010Z,11.20
2023-02-02T13:01:56.324Z,10.80
2023-02-02T13:04:54.479Z,11.20
2023-02-02T13:07:46.199Z,10.60
2023-02-02T13:10:39.813Z,10.50
2023-02-02T13:13:31.851Z,10.60
2023-02-02T13:16:19.844Z,10.50
2023-02-02T13:19:09.519Z,10.50
2023-02-02T13:21:59.745Z,10.50
2023-02-02T13:24:53.241Z,10.40
2023-02-02T13:27:41.480Z,10.40
2023-02-02T13:30:31.969Z,10.50
2023-02-02T13:33:23.572Z,10.40
2023-02-02T13:36:23.874Z,10.40
2023-02-02T13:39:18.102Z,10.40
2023-02-02T13:42:18.852Z,10.30
2023-02-02T13:45:12.231Z,10.30
2023-02-02T13:48:03.499Z,10.40
2023-02-02T13:50:58.922Z,10.40
2023-02-02T13:54:01.273Z,10.60
2023-02-02T13:56:53.169Z,10.80
2023-02-02T13:59:55.559Z,11.70
2023-02-02T14:02:45.501Z,10.70
2023-02-02T14:05:35.011Z,10.60
2023-02-02T14:08:25.897Z,10.50
2023-02-02T14:11:21.922Z,10.60
2023-02-02T14:14:28.527Z,11.40
2023-02-02T14:17:33.839Z,11.40
2023-02-02T14:20:36.595Z,11.00
2023-02-02T14:23:43.824Z,10.80
2023-02-02T14:26:45.917Z,10.60
2023-02-02T14:29:39.864Z,10.90
2023-02-02T14:32:33.041Z,10.40
2023-02-02T14:35:39.468Z,10.80
2023-02-02T14:38:46.296Z,10.00
2023-02-02T14:41:59.858Z,10.70
2023-02-02T14:45:15.771Z,10.10
2023-02-02T14:48:10.052Z,10.00
2023-02-02T14:51:00.939Z,10.30
2023-02-02T14:53:50.734Z,9.80
2023-02-02T14:56:41.663Z,10.10
2023-02-02T14:59:32.577Z,10.10
2023-02-02T15:02:24.812Z,10.30
2023-02-02T15:05:34.439Z,9.90
2023-02-02T15:08:24.565Z,9.70
2023-02-02T15:11:32.429Z,9.60
2023-02-02T15:14:24.979Z,9.70
2023-02-02T15:17:21.403Z,9.40
2023-02-02T15:20:16.228Z,9.60
2023-02-02T15:23:10.538Z,9.30
2023-02-02T15:26:02.002Z,9.30
2023-02-02T15:28:55.916Z,9.50
2023-02-02T15:31:50.189Z,9.60
2023-02-02T15:34:40.984Z,9.40
2023-02-02T15:37:36.298Z,9.30
2023-02-02T15:40:25.698Z,9.40
2023-02-02T15:43:17.964Z,9.30
2023-02-02T15:46:10.316Z,9.30
2023-02-02T15:49:32.821Z,9.50
2023-02-02T15:52:25.933Z,10.80
2023-02-02T15:55:22.637Z,9.70
2023-02-02T15:58:23.114Z,9.50
2023-02-02T16:01:17.169Z,9.50
2023-02-02T16:04:16.916Z,9.50
2023-02-02T16:07:05.082Z,9.50
2023-02-02T16:09:52.856Z,9.40
2023-02-02T16:12:43.051Z,9.50
2023-02-02T16:15:32.055Z,9.40
2023-02-02T16:18:22.259Z,8.20
2023-02-02T16:21:15.455Z,11.10
2023-02-02T16:24:07.549Z,6.90
2023-02-02T16:26:56.140Z,9.30
2023-02-02T16:29:45.993Z,10.10
2023-02-02T16:32:36.100Z,9.20
2023-02-02T16:35:34.652Z,9.60
2023-02-02T16:38:25.035Z,9.50
2023-02-02T16:41:13.737Z,10.10
2023-02-02T16:44:19.849Z,9.50
2023-02-02T16:47:10.206Z,9.60
2023-02-02T16:50:18.475Z,9.50
2023-02-02T16:53:07.661Z,9.30
2023-02-02T16:55:58.076Z,9.40
2023-02-02T16:58:46.600Z,9.30
2023-02-02T17:01:36.693Z,7.50
2023-02-02T17:04:27.571Z,9.30
2023-02-02T17:07:17.406Z,9.30
2023-02-02T17:10:13.273Z,9.30
2023-02-02T17:13:02.360Z,9.30
2023-02-02T17:15:53.491Z,9.40
2023-02-02T17:18:41.633Z,9.30
2023-02-02T17:21:34.028Z,9.40
2023-02-02T17:24:26.211Z,9.10
2023-02-02T17:27:17.879Z,9.40
2023-02-02T17:30:07.039Z,7.70
2023-02-02T17:32:57.536Z,9.30
2023-02-02T17:35:54.227Z,9.30
2023-02-02T17:38:44.915Z,11.70
2023-02-02T17:41:33.000Z,9.60
2023-02-02T17:44:21.335Z,9.30
2023-02-02T17:47:11.230Z,9.40
2023-02-02T17:49:59.212Z,9.20
2023-02-02T17:52:49.833Z,9.20
2023-02-02T17:55:40.981Z,9.40
2023-02-02T17:58:29.593Z,9.40
2023-02-02T18:01:17.596Z,9.30
2023-02-02T18:04:05.908Z,9.10
2023-02-02T18:06:56.853Z,9.10
2023-02-02T18:09:51.250Z,9.00
2023-02-02T18:12:41.077Z,9.00
2023-02-02T18:15:29.882Z,9.00
2023-02-02T18:18:20.564Z,11.10
2023-02-02T18:21:12.270Z,8.80
2023-02-02T18:24:00.245Z,9.30
2023-02-02T18:26:49.488Z,8.70
2023-02-02T18:29:39.440Z,10.00
2023-02-02T18:32:28.641Z,8.10
2023-02-02T18:35:16.789Z,9.90
2023-02-02T18:38:05.102Z,10.80
2023-02-02T18:40:56.382Z,9.00
2023-02-02T18:43:45.786Z,6.50
2023-02-02T18:46:35.183Z,8.80
2023-02-02T18:49:23.324Z,8.80
2023-02-02T18:52:14.045Z,9.30
2023-02-02T18:55:01.902Z,8.90
2023-02-02T18:57:50.798Z,8.60
2023-02-02T19:00:39.191Z,8.40
2023-02-02T19:03:31.661Z,9.20
2023-02-02T19:06:38.813Z,9.00
2023-02-02T19:09:26.403Z,9.00
2023-02-02T19:12:15.358Z,9.40
2023-02-02T19:15:03.443Z,9.00
2023-02-02T19:17:51.953Z,9.10
2023-02-02T19:20:46.306Z,9.10
2023-02-02T19:23:37.943Z,9.00
2023-02-02T19:26:28.261Z,9.20
2023-02-02T19:29:18.621Z,8.40
2023-02-02T19:32:15.057Z,9.60
2023-02-02T19:35:05.635Z,9.10
2023-02-02T19:37:59.581Z,9.10
2023-02-02T19:40:48.744Z,11.40
2023-02-02T19:43:37.518Z,9.10
2023-02-02T19:46:30.623Z,9.10
2023-02-02T19:49:23.928Z,9.10
2023-02-02T19:52:20.884Z,9.60
2023-02-02T19:55:18.953Z,9.20
2023-02-02T19:58:14.546Z,8.30
2023-02-02T20:01:04.424Z,9.70
2023-02-02T20:03:58.657Z,9.40
2023-02-02T20:06:59.035Z,9.40
2023-02-02T20:09:47.749Z,11.00
2023-02-02T20:12:37.256Z,9.30
2023-02-02T20:15:35.197Z,9.10
2023-02-02T20:18:24.912Z,9.10
2023-02-02T20:21:24.786Z,9.00
2023-02-02T20:24:16.249Z,9.10
2023-02-02T20:27:07.400Z,9.20
2023-02-02T20:29:58.224Z,9.30
2023-02-02T20:32:54.258Z,9.40
2023-02-02T20:35:43.159Z,6.90
2023-02-02T20:38:37.455Z,9.20
2023-02-02T20:41:25.216Z,9.10
2023-02-02T20:44:12.831Z,9.40
2023-02-02T20:47:04.821Z,9.10
2023-02-02T20:49:52.807Z,9.60
2023-02-02T20:52:40.743Z,9.40
2023-02-02T20:55:30.426Z,9.10
2023-02-02T20:58:22.087Z,10.10
2023-02-02T21:01:11.779Z,7.50
2023-02-02T21:04:01.733Z,10.00
2023-02-02T21:06:52.454Z,9.20
2023-02-02T21:09:40.329Z,10.40
2023-02-02T21:12:28.432Z,9.00
2023-02-02T21:15:16.853Z,9.20
2023-02-02T21:18:06.703Z,11.00
2023-02-02T21:20:55.924Z,9.20
2023-02-02T21:23:47.445Z,11.30
2023-02-02T21:26:34.960Z,11.10
2023-02-02T21:29:22.869Z,9.20
2023-02-02T21:32:10.917Z,9.30
2023-02-02T21:34:59.054Z,10.20
2023-02-02T21:37:51.847Z,10.80
2023-02-02T21:40:40.064Z,9.20
2023-02-02T21:43:31.126Z,9.10
2023-02-02T21:46:27.023Z,9.10
2023-02-02T21:49:21.177Z,9.10
2023-02-02T21:52:16.320Z,9.00
2023-02-02T21:55:23.870Z,9.10
2023-02-02T21:58:22.082Z,9.10
2023-02-02T22:01:18.345Z,9.10
2023-02-02T22:04:13.500Z,9.00
2023-02-02T22:07:02.237Z,9.20
2023-02-02T22:09:52.751Z,9.10
2023-02-02T22:12:43.378Z,9.10
2023-02-02T22:15:35.144Z,9.20
2023-02-02T22:18:24.144Z,9.20
2023-02-02T22:21:15.801Z,9.10
2023-02-02T22:24:03.565Z,9.10
2023-02-02T22:26:52.845Z,9.10
2023-02-02T22:29:41.904Z,9.10
2023-02-02T22:32:29.898Z,9.10
2023-02-02T22:35:17.523Z,9.00
2023-02-02T22:38:07.515Z,9.10
2023-02-02T22:40:55.280Z,10.90
2023-02-02T22:43:43.429Z,9.20
2023-02-02T22:46:34.484Z,10.30
2023-02-02T22:49:22.155Z,9.10
2023-02-02T22:52:10.041Z,9.20
2023-02-02T22:54:58.732Z,9.20
2023-02-02T22:57:46.239Z,9.20
2023-02-02T23:00:34.184Z,9.20
2023-02-02T23:03:27.444Z,9.20
2023-02-02T23:06:20.151Z,9.10
2023-02-02T23:09:08.792Z,9.40
2023-02-02T23:11:56.460Z,9.20
2023-02-02T23:14:46.877Z,9.20
2023-02-02T23:17:36.135Z,9.30
2023-02-02T23:20:28.104Z,8.70
2023-02-02T23:23:18.458Z,9.40
2023-02-02T23:26:06.001Z,9.10
2023-02-02T23:28:54.511Z,9.20
2023-02-02T23:31:45.073Z,9.30
2023-02-02T23:34:34.411Z,9.30
2023-02-02T23:37:27.013Z,9.30
2023-02-02T23:40:19.889Z,9.20
2023-02-02T23:43:10.633Z,9.30
2023-02-02T23:45:59.065Z,9.30
2023-02-02T23:48:50.590Z,9.20
2023-02-02T23:51:39.724Z,8.20
2023-02-02T23:54:29.753Z,9.20
2023-02-02T23:57:17.565Z,9.30
